Meteorológiai információk azoknak akik tudják olvasni.

METAR = LHBP 062130Z 14007KT CAVOK 11/02 Q1011 NOSIG

9 órás TAF = TAF TAF LHBP 242330Z 2423/2424 30008KT CAVOK BECMG 2506/2509 24010KT OVC030 TEMPO 2509/2515 24015G25KT 8000 -RA BKN013 OVC025 BECMG 2515/2518 30008KT CAVOK

24 órás TAF = TAF TAF LHBP 061715Z 0618/0718 20009KT CAVOK BECMG 0618/0620 14006KT TEMPO 0621/0712 -RA BKN040 OVC070 BECMG 0704/0706 22009KT TEMPO 0715/0718 -SHRA FEW030TCU BKN060

ÁLLOMÁS.................... LHBP
ÉSZLELÉS................... Thu May 6, 23:30 CEST
MOST....................... Thu May 6, 23:32 CEST
IDŐ........................ 2 perccel ezelőtt
SZÉL....................... DK irányból 7 csomó
LÁTÁSTÁVOLSÁG.............. 10 km vagy több
FELHŐZET................... jelentős felhőzet nincs
HŐMÉRSÉKLET................ 52°F (11°C)
HARMATPONT................. 36°F (2°C)
PÁRATARTALOM............... 54%
LÉGNYOMÁS.................. 1011 hPa (29.85 in Hg)

További információ LHBP állomásról

Meteor információ kérése:        állomásról.    

 

www.tothgeza.hu

 

English version
Copyright © 2003-2021 Tóth Géza Minden jog fenntartva.